ローマ/フィウミチーノ の空港の天気 - METARとTAF

ローマ・レオナルド・ダ・ビンチ国際空港 ( LIRF / FCO ) - イタリア ローマ
飛行場実況気象(Metar)
観測時間04/27 18:20 CEST (04/27 16:20 UTC)
風向・風速南東 6m/s
視程10km以上
天気現象弱い雨
少しの雲 雲底高度 610m
全天の4割程度の雲 雲底高度 1070m
気温18℃
湿度73%
気圧1010hPa
METARLIRF 271620Z 14011KT 9999 -RA FEW020 SCT035 18/13 Q1010 TEMPO 4000 SHRA
過去の天気等 Google飛行場航空写真 Wunderground天気予報

過去48時間のMETAR

飛行場予報(TAF)
発表時間: 4/27 13:00 CEST (4/27 11:00 UTC)
予報対象時間: 27日14時 CEST ~ 28日20時 CEST
風向・風速南南東 9m/s 瞬間風速 14m/s
視程10km以上
全天の4割程度の雲 雲底高度 910m
27日14時 CEST ~ 28日8時 CEST に一時的に
視程4,000m
天気現象しゅう雨
27日20時 CEST ~ 27日22時 CEST に徐々に
風向・風速南南東 6m/s
28日3時 CEST ~ 28日5時 CEST に徐々に
風向・風速西南西 8m/s
28日9時 CEST ~ 28日11時 CEST に徐々に
風向・風速西南西 11m/s 瞬間風速 16m/s
TAF LIRF 271100Z 2712/2818 16018G28KT 9999 SCT030
TEMPO 2712/2806 4000 SHRA
BECMG 2718/2720 15012KT
BECMG 2801/2803 24016KT
BECMG 2807/2809 24022G32KT